sensor_id;sensor_type;location;lat;lon;timestamp;pressure;altitude;pressure_sealevel;temperature;humidity
4469;BME280;2247;42.666;23.292;2023-02-13T02:14:20;96135.53;;;6.14;59.31
4469;BME280;2247;42.666;23.292;2023-02-13T02:16:47;96130.50;;;6.25;58.65
4469;BME280;2247;42.666;23.292;2023-02-13T02:19:20;96129.72;;;6.51;57.73
4469;BME280;2247;42.666;23.292;2023-02-13T02:22:15;96131.31;;;6.65;57.16
4469;BME280;2247;42.666;23.292;2023-02-13T02:25:24;96135.50;;;6.93;56.75
4469;BME280;2247;42.666;23.292;2023-02-13T02:28:23;96130.69;;;6.90;56.00
4469;BME280;2247;42.666;23.292;2023-02-13T02:34:09;96121.63;;;6.79;56.25
4469;BME280;2247;42.666;23.292;2023-02-13T02:36:57;96118.41;;;6.64;56.44
4469;BME280;2247;42.666;23.292;2023-02-13T02:39:34;96124.47;;;6.58;56.90
4469;BME280;2247;42.666;23.292;2023-02-13T02:42:17;96131.13;;;6.60;56.65
4469;BME280;2247;42.666;23.292;2023-02-13T02:44:55;96130.94;;;6.36;57.41
4469;BME280;2247;42.666;23.292;2023-02-13T02:47:30;96141.41;;;6.29;57.48
4469;BME280;2247;42.666;23.292;2023-02-13T02:50:25;96144.22;;;6.34;57.58
4469;BME280;2247;42.666;23.292;2023-02-13T02:53:06;96153.47;;;6.30;57.51
4469;BME280;2247;42.666;23.292;2023-02-13T02:55:38;96151.88;;;6.29;57.42
4469;BME280;2247;42.666;23.292;2023-02-13T02:58:10;96152.47;;;6.31;57.67
4469;BME280;2247;42.666;23.292;2023-02-13T03:00:59;96162.72;;;6.32;57.26
4469;BME280;2247;42.666;23.292;2023-02-13T03:03:45;96158.50;;;6.45;56.91
4469;BME280;2247;42.666;23.292;2023-02-13T03:06:36;96157.13;;;6.62;56.47
4469;BME280;2247;42.666;23.292;2023-02-13T03:09:10;96149.25;;;6.75;56.04
4469;BME280;2247;42.666;23.292;2023-02-13T03:11:56;96149.78;;;7.23;54.96
4469;BME280;2247;42.666;23.292;2023-02-13T03:14:41;96146.09;;;7.37;53.99
4469;BME280;2247;42.666;23.292;2023-02-13T03:17:10;96128.66;;;7.05;54.40
4469;BME280;2247;42.666;23.292;2023-02-13T03:20:03;96151.81;;;7.15;54.30
4469;BME280;2247;42.666;23.292;2023-02-13T03:23:02;96153.88;;;6.86;55.00
4469;BME280;2247;42.666;23.292;2023-02-13T03:25:36;96145.41;;;6.84;55.15
4469;BME280;2247;42.666;23.292;2023-02-13T03:28:12;96143.38;;;6.80;55.19
4469;BME280;2247;42.666;23.292;2023-02-13T03:31:07;96149.03;;;6.96;54.69
4469;BME280;2247;42.666;23.292;2023-02-13T03:33:52;96148.44;;;6.81;55.06
4469;BME280;2247;42.666;23.292;2023-02-13T03:36:28;96157.31;;;6.73;55.41
4469;BME280;2247;42.666;23.292;2023-02-13T03:39:20;96162.34;;;6.68;55.37
4469;BME280;2247;42.666;23.292;2023-02-13T03:41:51;96150.66;;;6.91;54.70
4469;BME280;2247;42.666;23.292;2023-02-13T03:44:26;96157.91;;;6.89;54.74
4469;BME280;2247;42.666;23.292;2023-02-13T03:46:56;96150.19;;;7.13;54.01
4469;BME280;2247;42.666;23.292;2023-02-13T03:49:27;96151.00;;;7.14;53.99
4469;BME280;2247;42.666;23.292;2023-02-13T03:52:18;96153.41;;;7.22;53.51
4469;BME280;2247;42.666;23.292;2023-02-13T03:54:51;96154.78;;;7.38;53.13
4469;BME280;2247;42.666;23.292;2023-02-13T03:57:39;96152.97;;;7.32;53.37
4469;BME280;2247;42.666;23.292;2023-02-13T04:00:28;96148.53;;;7.32;53.07
4469;BME280;2247;42.666;23.292;2023-02-13T04:03:05;96142.81;;;6.78;54.39
4469;BME280;2247;42.666;23.292;2023-02-13T04:05:38;96145.41;;;6.64;54.84
4469;BME280;2247;42.666;23.292;2023-02-13T04:08:07;96149.03;;;6.44;55.65
4469;BME280;2247;42.666;23.292;2023-02-13T04:10:41;96153.06;;;6.26;56.24
4469;BME280;2247;42.666;23.292;2023-02-13T04:13:14;96155.47;;;6.21;56.56
4469;BME280;2247;42.666;23.292;2023-02-13T04:15:47;96154.69;;;6.27;56.26
4469;BME280;2247;42.666;23.292;2023-02-13T04:18:19;96156.50;;;6.47;55.64
4469;BME280;2247;42.666;23.292;2023-02-13T04:20:47;96152.69;;;6.36;56.05
4469;BME280;2247;42.666;23.292;2023-02-13T04:23:14;96164.34;;;6.27;55.96
4469;BME280;2247;42.666;23.292;2023-02-13T04:25:46;96158.50;;;6.31;56.15
4469;BME280;2247;42.666;23.292;2023-02-13T04:28:14;96169.59;;;6.47;55.64
4469;BME280;2247;42.666;23.292;2023-02-13T04:30:41;96150.06;;;6.76;54.93
4469;BME280;2247;42.666;23.292;2023-02-13T04:33:08;96160.09;;;7.05;54.02
4469;BME280;2247;42.666;23.292;2023-02-13T04:35:35;96159.88;;;7.13;53.68
4469;BME280;2247;42.666;23.292;2023-02-13T04:38:02;96149.94;;;7.35;52.98
4469;BME280;2247;42.666;23.292;2023-02-13T04:40:29;96148.53;;;7.39;52.82
4469;BME280;2247;42.666;23.292;2023-02-13T04:42:58;96149.59;;;7.11;53.45
4469;BME280;2247;42.666;23.292;2023-02-13T04:45:25;96152.19;;;7.25;53.50
4469;BME280;2247;42.666;23.292;2023-02-13T04:47:53;96154.59;;;7.33;52.98
4469;BME280;2247;42.666;23.292;2023-02-13T04:50:22;96133.03;;;7.24;52.96
4469;BME280;2247;42.666;23.292;2023-02-13T04:52:52;96140.25;;;7.35;52.86
4469;BME280;2247;42.666;23.292;2023-02-13T04:55:20;96148.56;;;7.26;53.06
4469;BME280;2247;42.666;23.292;2023-02-13T04:57:47;96154.63;;;7.13;53.60
4469;BME280;2247;42.666;23.292;2023-02-13T05:00:16;96154.06;;;6.98;53.85
4469;BME280;2247;42.666;23.292;2023-02-13T05:02:43;96168.75;;;6.99;53.70
4469;BME280;2247;42.666;23.292;2023-02-13T05:05:10;96151.44;;;6.85;53.75
4469;BME280;2247;42.666;23.292;2023-02-13T05:07:40;96165.34;;;6.92;54.01
4469;BME280;2247;42.666;23.292;2023-02-13T05:10:09;96161.94;;;6.71;54.22
4469;BME280;2247;42.666;23.292;2023-02-13T05:12:41;96165.34;;;6.72;54.22
4469;BME280;2247;42.666;23.292;2023-02-13T05:15:08;96177.44;;;6.80;54.25
4469;BME280;2247;42.666;23.292;2023-02-13T05:17:38;96171.81;;;6.83;54.06
4469;BME280;2247;42.666;23.292;2023-02-13T05:20:07;96166.78;;;6.61;54.34
4469;BME280;2247;42.666;23.292;2023-02-13T05:22:35;96177.25;;;6.75;54.10
4469;BME280;2247;42.666;23.292;2023-02-13T05:25:20;96196.59;;;6.60;54.28
4469;BME280;2247;42.666;23.292;2023-02-13T05:37:26;96173.22;;;6.59;54.25
4469;BME280;2247;42.666;23.292;2023-02-13T05:40:08;96162.34;;;6.88;53.12
4469;BME280;2247;42.666;23.292;2023-02-13T05:42:55;96165.09;;;7.33;52.23
4469;BME280;2247;42.666;23.292;2023-02-13T05:45:35;96176.00;;;7.17;52.34
4469;BME280;2247;42.666;23.292;2023-02-13T05:48:18;96194.16;;;6.92;53.44
4469;BME280;2247;42.666;23.292;2023-02-13T05:59:13;96198.41;;;6.53;54.08
4469;BME280;2247;42.666;23.292;2023-02-13T06:01:41;96188.53;;;6.68;53.79
4469;BME280;2247;42.666;23.292;2023-02-13T06:04:08;96189.53;;;6.81;53.36
4469;BME280;2247;42.666;23.292;2023-02-13T06:06:35;96196.59;;;6.73;53.29
4469;BME280;2247;42.666;23.292;2023-02-13T06:09:03;96201.03;;;6.80;53.20
4469;BME280;2247;42.666;23.292;2023-02-13T06:11:30;96200.84;;;6.75;53.47
4469;BME280;2247;42.666;23.292;2023-02-13T06:14:00;96207.06;;;6.80;53.28
4469;BME280;2247;42.666;23.292;2023-02-13T06:16:26;96211.91;;;6.83;53.22
4469;BME280;2247;42.666;23.292;2023-02-13T06:18:56;96216.75;;;6.86;53.49
4469;BME280;2247;42.666;23.292;2023-02-13T06:21:23;96197.41;;;6.67;53.41
4469;BME280;2247;42.666;23.292;2023-02-13T06:23:51;96214.34;;;6.98;53.07
4469;BME280;2247;42.666;23.292;2023-02-13T06:26:18;96223.59;;;7.00;53.42
4469;BME280;2247;42.666;23.292;2023-02-13T06:28:46;96217.34;;;7.08;53.01
4469;BME280;2247;42.666;23.292;2023-02-13T06:31:15;96214.50;;;7.29;52.29
4469;BME280;2247;42.666;23.292;2023-02-13T06:33:42;96212.50;;;7.11;52.68
4469;BME280;2247;42.666;23.292;2023-02-13T06:36:09;96229.44;;;7.16;52.61
4469;BME280;2247;42.666;23.292;2023-02-13T06:38:36;96223.56;;;7.20;52.53
4469;BME280;2247;42.666;23.292;2023-02-13T06:41:03;96220.75;;;7.15;52.93
4469;BME280;2247;42.666;23.292;2023-02-13T06:43:31;96228.00;;;7.13;52.92
4469;BME280;2247;42.666;23.292;2023-02-13T06:45:58;96210.69;;;6.99;52.76
4469;BME280;2247;42.666;23.292;2023-02-13T06:48:49;96224.00;;;7.17;52.91
4469;BME280;2247;42.666;23.292;2023-02-13T06:51:25;96219.94;;;7.21;52.36
4469;BME280;2247;42.666;23.292;2023-02-13T06:53:55;96227.19;;;7.12;52.68
4469;BME280;2247;42.666;23.292;2023-02-13T06:56:35;96225.81;;;7.17;53.13
4469;BME280;2247;42.666;23.292;2023-02-13T07:09:50;96206.88;;;7.01;53.11
4469;BME280;2247;42.666;23.292;2023-02-13T07:12:31;96223.19;;;7.03;53.04
4469;BME280;2247;42.666;23.292;2023-02-13T07:15:06;96207.88;;;6.67;53.88
4469;BME280;2247;42.666;23.292;2023-02-13T07:17:54;96225.59;;;6.65;54.20
4469;BME280;2247;42.666;23.292;2023-02-13T07:25:48;96225.38;;;6.34;54.72
4469;BME280;2247;42.666;23.292;2023-02-13T07:33:25;96225.16;;;6.29;55.02
4469;BME280;2247;42.666;23.292;2023-02-13T07:35:52;96210.88;;;6.45;54.15
4469;BME280;2247;42.666;23.292;2023-02-13T07:38:19;96240.28;;;6.53;54.38
4469;BME280;2247;42.666;23.292;2023-02-13T07:40:48;96225.75;;;6.38;54.38
4469;BME280;2247;42.666;23.292;2023-02-13T07:43:15;96232.63;;;6.45;54.28
4469;BME280;2247;42.666;23.292;2023-02-13T07:45:43;96229.59;;;6.35;54.50
4469;BME280;2247;42.666;23.292;2023-02-13T07:48:12;96242.47;;;6.43;54.91
4469;BME280;2247;42.666;23.292;2023-02-13T07:50:41;96230.84;;;6.65;54.04
4469;BME280;2247;42.666;23.292;2023-02-13T07:53:08;96230.00;;;6.39;54.71
4469;BME280;2247;42.666;23.292;2023-02-13T07:55:35;96235.22;;;6.39;55.00
4469;BME280;2247;42.666;23.292;2023-02-13T07:58:05;96230.63;;;6.47;54.92
4469;BME280;2247;42.666;23.292;2023-02-13T08:00:31;96233.22;;;6.34;54.87
4469;BME280;2247;42.666;23.292;2023-02-13T08:02:58;96233.19;;;6.21;55.25
4469;BME280;2247;42.666;23.292;2023-02-13T08:05:26;96231.97;;;6.23;55.18
4469;BME280;2247;42.666;23.292;2023-02-13T08:07:52;96236.03;;;6.39;54.89
4469;BME280;2247;42.666;23.292;2023-02-13T08:10:20;96226.97;;;6.22;55.18
4469;BME280;2247;42.666;23.292;2023-02-13T08:13:06;96226.84;;;5.96;55.78
4469;BME280;2247;42.666;23.292;2023-02-13T08:15:33;96226.84;;;5.96;56.03
4469;BME280;2247;42.666;23.292;2023-02-13T08:18:00;96235.63;;;6.29;55.81
4469;BME280;2247;42.666;23.292;2023-02-13T08:20:27;96226.38;;;6.40;54.91
4469;BME280;2247;42.666;23.292;2023-02-13T08:22:57;96228.81;;;6.48;55.09
4469;BME280;2247;42.666;23.292;2023-02-13T08:25:27;96228.81;;;6.54;54.89
4469;BME280;2247;42.666;23.292;2023-02-13T08:27:54;96239.69;;;6.64;54.04
4469;BME280;2247;42.666;23.292;2023-02-13T08:30:22;96228.22;;;6.59;54.56
4469;BME280;2247;42.666;23.292;2023-02-13T08:32:49;96223.59;;;6.54;54.53
4469;BME280;2247;42.666;23.292;2023-02-13T08:35:16;96218.69;;;6.18;55.15
4469;BME280;2247;42.666;23.292;2023-02-13T08:37:43;96235.06;;;6.66;54.65
4469;BME280;2247;42.666;23.292;2023-02-13T08:40:10;96231.84;;;6.64;54.26
4469;BME280;2247;42.666;23.292;2023-02-13T08:42:37;96230.03;;;6.78;53.99
4469;BME280;2247;42.666;23.292;2023-02-13T08:45:05;96229.44;;;6.96;53.64
4469;BME280;2247;42.666;23.292;2023-02-13T08:47:33;96226.41;;;6.99;53.85
4469;BME280;2247;42.666;23.292;2023-02-13T08:49:59;96230.41;;;7.28;53.11
4469;BME280;2247;42.666;23.292;2023-02-13T08:52:26;96220.78;;;7.02;53.64
4469;BME280;2247;42.666;23.292;2023-02-13T08:54:53;96229.25;;;6.78;54.14
4469;BME280;2247;42.666;23.292;2023-02-13T08:57:20;96232.66;;;6.71;56.14
4469;BME280;2247;42.666;23.292;2023-02-13T08:59:46;96236.06;;;6.65;55.23
4469;BME280;2247;42.666;23.292;2023-02-13T09:02:13;96235.50;;;6.83;55.01
4469;BME280;2247;42.666;23.292;2023-02-13T09:04:42;96232.25;;;7.14;54.44
4469;BME280;2247;42.666;23.292;2023-02-13T09:07:09;96230.81;;;7.44;53.73
4469;BME280;2247;42.666;23.292;2023-02-13T09:09:37;96230.78;;;7.58;52.92
4469;BME280;2247;42.666;23.292;2023-02-13T09:12:04;96235.69;;;7.92;52.33
4469;BME280;2247;42.666;23.292;2023-02-13T09:14:31;96229.28;;;7.75;52.51
4469;BME280;2247;42.666;23.292;2023-02-13T09:16:58;96226.13;;;8.11;54.76
4469;BME280;2247;42.666;23.292;2023-02-13T09:19:25;96230.31;;;8.63;53.05
4469;BME280;2247;42.666;23.292;2023-02-13T09:21:53;96232.84;;;8.76;55.11
4469;BME280;2247;42.666;23.292;2023-02-13T09:24:20;96222.81;;;9.16;50.41
4469;BME280;2247;42.666;23.292;2023-02-13T09:26:47;96226.94;;;8.56;50.77
4469;BME280;2247;42.666;23.292;2023-02-13T09:29:14;96218.66;;;8.52;50.42
4469;BME280;2247;42.666;23.292;2023-02-13T09:31:41;96217.69;;;8.72;50.20
4469;BME280;2247;42.666;23.292;2023-02-13T09:34:08;96211.72;;;8.58;50.52
4469;BME280;2247;42.666;23.292;2023-02-13T09:36:35;96218.19;;;8.62;50.54
4469;BME280;2247;42.666;23.292;2023-02-13T09:39:03;96198.22;;;8.54;50.46
4469;BME280;2247;42.666;23.292;2023-02-13T09:41:32;96205.69;;;8.19;51.27
4469;BME280;2247;42.666;23.292;2023-02-13T09:44:05;96203.81;;;7.95;51.28
4469;BME280;2247;42.666;23.292;2023-02-13T09:46:35;96198.78;;;7.87;51.91
4469;BME280;2247;42.666;23.292;2023-02-13T09:49:06;96198.81;;;8.18;51.21
4469;BME280;2247;42.666;23.292;2023-02-13T09:51:34;96200.63;;;8.18;51.41
4469;BME280;2247;42.666;23.292;2023-02-13T09:54:04;96196.75;;;8.27;51.53
4469;BME280;2247;42.666;23.292;2023-02-13T09:56:39;96196.09;;;8.38;50.99
4469;BME280;2247;42.666;23.292;2023-02-13T09:59:18;96193.13;;;8.35;51.35
4469;BME280;2247;42.666;23.292;2023-02-13T10:01:54;96186.91;;;8.22;51.43
4469;BME280;2247;42.666;23.292;2023-02-13T10:04:43;96186.22;;;8.65;50.60
4469;BME280;2247;42.666;23.292;2023-02-13T10:07:20;96179.78;;;8.61;50.39
4469;BME280;2247;42.666;23.292;2023-02-13T10:09:59;96178.97;;;8.60;50.06
4469;BME280;2247;42.666;23.292;2023-02-13T10:12:52;96169.22;;;8.67;50.86
4469;BME280;2247;42.666;23.292;2023-02-13T10:15:27;96166.06;;;8.27;51.00
4469;BME280;2247;42.666;23.292;2023-02-13T10:17:58;96163.75;;;8.06;52.06
4469;BME280;2247;42.666;23.292;2023-02-13T10:20:32;96160.31;;;8.44;50.74
4469;BME280;2247;42.666;23.292;2023-02-13T10:23:18;96143.34;;;8.08;51.60
4469;BME280;2247;42.666;23.292;2023-02-13T10:25:52;96147.88;;;7.95;51.62
4469;BME280;2247;42.666;23.292;2023-02-13T10:28:27;96155.19;;;7.86;51.62
4469;BME280;2247;42.666;23.292;2023-02-13T10:30:58;96136.34;;;7.58;52.48
4469;BME280;2247;42.666;23.292;2023-02-13T10:33:31;96134.97;;;7.93;51.38
4469;BME280;2247;42.666;23.292;2023-02-13T10:36:02;96139.50;;;7.73;52.11
4469;BME280;2247;42.666;23.292;2023-02-13T10:38:32;96134.28;;;8.04;51.56
4469;BME280;2247;42.666;23.292;2023-02-13T10:41:13;96124.44;;;8.31;51.43
4469;BME280;2247;42.666;23.292;2023-02-13T10:43:58;96119.81;;;8.26;50.78
4469;BME280;2247;42.666;23.292;2023-02-13T10:46:35;96119.00;;;7.95;52.06
4469;BME280;2247;42.666;23.292;2023-02-13T10:49:22;96111.53;;;7.91;52.42
4469;BME280;2247;42.666;23.292;2023-02-13T10:51:58;96109.47;;;8.00;52.23
4469;BME280;2247;42.666;23.292;2023-02-13T10:54:42;96105.81;;;8.08;51.88
4469;BME280;2247;42.666;23.292;2023-02-13T10:57:17;96113.75;;;8.26;51.50
4469;BME280;2247;42.666;23.292;2023-02-13T11:00:00;96090.50;;;8.29;51.22
4469;BME280;2247;42.666;23.292;2023-02-13T11:02:30;96082.34;;;8.13;51.38
4469;BME280;2247;42.666;23.292;2023-02-13T11:05:00;96096.16;;;8.02;51.53
4469;BME280;2247;42.666;23.292;2023-02-13T11:07:29;96093.19;;;8.16;51.21
4469;BME280;2247;42.666;23.292;2023-02-13T11:10:00;96079.38;;;8.34;50.95
4469;BME280;2247;42.666;23.292;2023-02-13T11:12:31;96082.69;;;8.48;50.04
4469;BME280;2247;42.666;23.292;2023-02-13T11:15:00;96075.53;;;8.37;50.04
4469;BME280;2247;42.666;23.292;2023-02-13T11:17:30;96080.81;;;8.23;49.97
4469;BME280;2247;42.666;23.292;2023-02-13T11:19:59;96069.41;;;8.11;50.03
4469;BME280;2247;42.666;23.292;2023-02-13T11:22:30;96060.88;;;8.22;49.57
4469;BME280;2247;42.666;23.292;2023-02-13T11:24:59;96067.31;;;7.95;50.14
4469;BME280;2247;42.666;23.292;2023-02-13T11:27:32;96057.34;;;8.04;50.59
4469;BME280;2247;42.666;23.292;2023-02-13T11:30:01;96048.34;;;8.18;50.89
4469;BME280;2247;42.666;23.292;2023-02-13T11:32:30;96045.47;;;8.26;50.07
4469;BME280;2247;42.666;23.292;2023-02-13T11:35:19;96044.13;;;8.17;49.83
4469;BME280;2247;42.666;23.292;2023-02-13T11:38:10;96044.13;;;8.17;49.79
4469;BME280;2247;42.666;23.292;2023-02-13T11:40:37;96036.03;;;8.18;50.07
4469;BME280;2247;42.666;23.292;2023-02-13T11:43:07;96018.63;;;8.24;50.85
4469;BME280;2247;42.666;23.292;2023-02-13T11:45:43;96025.63;;;8.30;50.21
4469;BME280;2247;42.666;23.292;2023-02-13T11:48:19;96019.81;;;8.28;50.29
4469;BME280;2247;42.666;23.292;2023-02-13T11:50:50;96013.38;;;8.49;49.82
4469;BME280;2247;42.666;23.292;2023-02-13T11:53:20;96003.22;;;8.52;49.82
4469;BME280;2247;42.666;23.292;2023-02-13T11:56:01;95998.84;;;8.64;48.92
4469;BME280;2247;42.666;23.292;2023-02-13T11:58:30;95996.97;;;8.90;48.05
4469;BME280;2247;42.666;23.292;2023-02-13T12:01:20;95988.41;;;9.13;46.61
4469;BME280;2247;42.666;23.292;2023-02-13T12:03:57;95987.69;;;9.05;47.12
4469;BME280;2247;42.666;23.292;2023-02-13T12:06:26;95982.16;;;8.95;47.10
4469;BME280;2247;42.666;23.292;2023-02-13T12:08:53;95974.94;;;9.21;47.00
4469;BME280;2247;42.666;23.292;2023-02-13T12:11:23;95974.50;;;9.24;46.76
4469;BME280;2247;42.666;23.292;2023-02-13T12:13:52;95976.88;;;9.43;46.22
4469;BME280;2247;42.666;23.292;2023-02-13T12:16:33;95970.69;;;9.38;45.67
4469;BME280;2247;42.666;23.292;2023-02-13T12:19:05;95966.97;;;9.27;46.31
4469;BME280;2247;42.666;23.292;2023-02-13T12:21:46;95974.50;;;9.24;45.72
4469;BME280;2247;42.666;23.292;2023-02-13T12:24:29;95973.78;;;9.17;45.82
4469;BME280;2247;42.666;23.292;2023-02-13T12:27:11;95961.03;;;9.02;45.84
4469;BME280;2247;42.666;23.292;2023-02-13T12:29:58;95967.69;;;8.86;46.29
4469;BME280;2247;42.666;23.292;2023-02-13T12:32:36;95961.41;;;8.87;47.15
4469;BME280;2247;42.666;23.292;2023-02-13T12:35:27;95929.16;;;8.80;46.25
4469;BME280;2247;42.666;23.292;2023-02-13T12:38:01;95963.09;;;9.30;46.40
4469;BME280;2247;42.666;23.292;2023-02-13T12:40:43;95940.16;;;9.48;44.90
4469;BME280;2247;42.666;23.292;2023-02-13T12:46:08;95945.91;;;9.69;44.38
4469;BME280;2247;42.666;23.292;2023-02-13T12:48:44;95943.69;;;10.07;43.69
4469;BME280;2247;42.666;23.292;2023-02-13T12:51:25;95936.47;;;9.91;43.35
4469;BME280;2247;42.666;23.292;2023-02-13T12:54:22;95930.31;;;10.09;43.24
4469;BME280;2247;42.666;23.292;2023-02-13T12:57:06;95930.06;;;9.99;43.10
4469;BME280;2247;42.666;23.292;2023-02-13T12:59:46;95924.44;;;10.07;43.15
4469;BME280;2247;42.666;23.292;2023-02-13T13:02:50;95922.97;;;9.87;43.47
4469;BME280;2247;42.666;23.292;2023-02-13T13:05:43;95926.25;;;9.71;43.89
4469;BME280;2247;42.666;23.292;2023-02-13T13:08:37;95922.22;;;9.57;43.26
4469;BME280;2247;42.666;23.292;2023-02-13T13:11:18;95929.38;;;9.38;43.82
4469;BME280;2247;42.666;23.292;2023-02-13T13:13:54;95922.69;;;9.54;43.51
4469;BME280;2247;42.666;23.292;2023-02-13T13:16:30;95921.19;;;9.46;44.10
4469;BME280;2247;42.666;23.292;2023-02-13T13:19:10;95909.66;;;9.59;43.43
4469;BME280;2247;42.666;23.292;2023-02-13T13:21:45;95911.47;;;9.70;43.86
4469;BME280;2247;42.666;23.292;2023-02-13T13:24:27;95908.25;;;9.68;43.84
4469;BME280;2247;42.666;23.292;2023-02-13T13:26:58;95892.25;;;9.58;43.43
4469;BME280;2247;42.666;23.292;2023-02-13T13:29:31;95899.34;;;9.69;43.57
4469;BME280;2247;42.666;23.292;2023-02-13T13:32:01;95906.81;;;9.84;44.00
4469;BME280;2247;42.666;23.292;2023-02-13T13:34:33;95898.13;;;10.07;43.83
4469;BME280;2247;42.666;23.292;2023-02-13T13:37:04;95901.19;;;9.92;43.11
4469;BME280;2247;42.666;23.292;2023-02-13T13:39:44;95892.84;;;9.83;43.49
4469;BME280;2247;42.666;23.292;2023-02-13T13:42:17;95907.03;;;9.71;43.65
4469;BME280;2247;42.666;23.292;2023-02-13T13:44:53;95906.34;;;9.75;44.04
4469;BME280;2247;42.666;23.292;2023-02-13T13:47:43;95896.72;;;10.04;43.05
4469;BME280;2247;42.666;23.292;2023-02-13T13:50:21;95897.44;;;10.00;43.69
4469;BME280;2247;42.666;23.292;2023-02-13T13:53:06;95891.38;;;9.87;43.22
4469;BME280;2247;42.666;23.292;2023-02-13T13:55:58;95891.81;;;9.84;44.13
4469;BME280;2247;42.666;23.292;2023-02-13T13:58:34;95897.41;;;10.11;43.89
4469;BME280;2247;42.666;23.292;2023-02-13T14:01:24;95897.31;;;9.95;43.00
4469;BME280;2247;42.666;23.292;2023-02-13T14:03:53;95895.47;;;9.83;43.51
4469;BME280;2247;42.666;23.292;2023-02-13T14:06:23;95898.22;;;9.77;43.87
4469;BME280;2247;42.666;23.292;2023-02-13T14:11:43;95898.00;;;9.78;43.21
4469;BME280;2247;42.666;23.292;2023-02-13T14:17:50;95877.25;;;9.82;43.23
4469;BME280;2247;42.666;23.292;2023-02-13T14:20:35;95885.50;;;9.62;43.87
4469;BME280;2247;42.666;23.292;2023-02-13T14:23:14;95876.78;;;9.62;43.68
4469;BME280;2247;42.666;23.292;2023-02-13T14:25:43;95884.25;;;9.65;44.49
4469;BME280;2247;42.666;23.292;2023-02-13T14:28:20;95873.50;;;9.66;43.85
4469;BME280;2247;42.666;23.292;2023-02-13T14:30:48;95874.97;;;9.51;44.20
4469;BME280;2247;42.666;23.292;2023-02-13T14:33:25;95871.31;;;9.63;44.00
4469;BME280;2247;42.666;23.292;2023-02-13T14:36:03;95873.34;;;9.61;44.02
4469;BME280;2247;42.666;23.292;2023-02-13T14:38:33;95871.53;;;9.50;44.05
4469;BME280;2247;42.666;23.292;2023-02-13T14:41:01;95866.03;;;9.52;44.34
4469;BME280;2247;42.666;23.292;2023-02-13T14:43:47;95872.09;;;9.52;44.09
4469;BME280;2247;42.666;23.292;2023-02-13T14:46:25;95874.84;;;9.57;44.04
4469;BME280;2247;42.666;23.292;2023-02-13T14:48:58;95873.72;;;9.53;44.45
4469;BME280;2247;42.666;23.292;2023-02-13T14:51:32;95867.38;;;9.42;44.36
4469;BME280;2247;42.666;23.292;2023-02-13T14:54:05;95868.56;;;9.46;44.71
4469;BME280;2247;42.666;23.292;2023-02-13T14:56:32;95871.19;;;9.46;44.63
4469;BME280;2247;42.666;23.292;2023-02-13T14:59:09;95862.25;;;9.47;44.43
4469;BME280;2247;42.666;23.292;2023-02-13T15:01:43;95864.66;;;9.37;44.59
4469;BME280;2247;42.666;23.292;2023-02-13T15:04:14;95869.53;;;9.22;44.87
4469;BME280;2247;42.666;23.292;2023-02-13T15:06:43;95864.72;;;9.19;44.96
4469;BME280;2247;42.666;23.292;2023-02-13T15:09:20;95861.84;;;9.09;44.79
4469;BME280;2247;42.666;23.292;2023-02-13T15:11:49;95864.03;;;9.12;44.95
4469;BME280;2247;42.666;23.292;2023-02-13T15:14:18;95867.81;;;9.16;44.87
4469;BME280;2247;42.666;23.292;2023-02-13T15:16:49;95858.69;;;9.30;44.51
4469;BME280;2247;42.666;23.292;2023-02-13T15:19:19;95863.50;;;9.33;44.84
4469;BME280;2247;42.666;23.292;2023-02-13T15:21:50;95867.81;;;9.28;44.72
4469;BME280;2247;42.666;23.292;2023-02-13T15:24:20;95858.53;;;9.14;44.91
4469;BME280;2247;42.666;23.292;2023-02-13T15:26:58;95873.97;;;9.22;44.67
4469;BME280;2247;42.666;23.292;2023-02-13T15:29:25;95874.19;;;9.20;45.11
4469;BME280;2247;42.666;23.292;2023-02-13T15:31:52;95869.09;;;9.25;45.03
4469;BME280;2247;42.666;23.292;2023-02-13T15:34:25;95864.38;;;9.27;44.55
4469;BME280;2247;42.666;23.292;2023-02-13T15:36:53;95876.50;;;9.17;45.02
4469;BME280;2247;42.666;23.292;2023-02-13T15:39:24;95869.50;;;9.11;45.31
4469;BME280;2247;42.666;23.292;2023-02-13T15:41:54;95882.19;;;9.14;45.41
4469;BME280;2247;42.666;23.292;2023-02-13T15:44:25;95878.59;;;9.26;45.52
4469;BME280;2247;42.666;23.292;2023-02-13T15:46:59;95872.47;;;9.14;45.46
4469;BME280;2247;42.666;23.292;2023-02-13T15:49:32;95889.06;;;9.15;45.15
4469;BME280;2247;42.666;23.292;2023-02-13T15:52:05;95885.44;;;9.27;45.57
4469;BME280;2247;42.666;23.292;2023-02-13T15:54:34;95891.97;;;9.36;44.87
4469;BME280;2247;42.666;23.292;2023-02-13T15:57:03;95888.00;;;9.45;45.82
4469;BME280;2247;42.666;23.292;2023-02-13T15:59:34;95885.38;;;9.57;44.98
4469;BME280;2247;42.666;23.292;2023-02-13T16:02:03;95889.41;;;9.71;44.85
4469;BME280;2247;42.666;23.292;2023-02-13T16:04:31;95886.22;;;9.81;44.72
4469;BME280;2247;42.666;23.292;2023-02-13T16:07:01;95890.34;;;9.88;44.21
4469;BME280;2247;42.666;23.292;2023-02-13T16:09:30;95884.72;;;9.97;44.22
4469;BME280;2247;42.666;23.292;2023-02-13T16:12:05;95885.50;;;9.97;43.98
4469;BME280;2247;42.666;23.292;2023-02-13T16:14:34;95890.09;;;10.02;43.91
4469;BME280;2247;42.666;23.292;2023-02-13T16:17:03;95893.06;;;10.05;43.89
4469;BME280;2247;42.666;23.292;2023-02-13T16:19:34;95882.06;;;9.97;43.94
4469;BME280;2247;42.666;23.292;2023-02-13T16:22:06;95886.09;;;9.87;44.23
4469;BME280;2247;42.666;23.292;2023-02-13T16:24:45;95897.75;;;9.68;44.71
4469;BME280;2247;42.666;23.292;2023-02-13T16:27:16;95894.81;;;9.35;45.52
4469;BME280;2247;42.666;23.292;2023-02-13T16:29:52;95909.88;;;9.16;45.28
4469;BME280;2247;42.666;23.292;2023-02-13T16:32:28;95905.63;;;8.85;45.95
4469;BME280;2247;42.666;23.292;2023-02-13T16:34:59;95902.75;;;8.75;46.12
4469;BME280;2247;42.666;23.292;2023-02-13T16:37:49;95903.63;;;8.51;46.74
4469;BME280;2247;42.666;23.292;2023-02-13T16:40:37;95909.63;;;8.40;47.14
4469;BME280;2247;42.666;23.292;2023-02-13T16:43:34;95910.22;;;8.42;47.22
4469;BME280;2247;42.666;23.292;2023-02-13T16:46:31;95914.44;;;8.43;47.86
4469;BME280;2247;42.666;23.292;2023-02-13T16:49:18;95908.00;;;8.75;46.61
4469;BME280;2247;42.666;23.292;2023-02-13T16:51:49;95907.38;;;8.91;46.53
4469;BME280;2247;42.666;23.292;2023-02-13T16:54:29;95910.78;;;9.10;45.78
4469;BME280;2247;42.666;23.292;2023-02-13T16:57:00;95912.69;;;9.03;45.96
4469;BME280;2247;42.666;23.292;2023-02-13T16:59:41;95913.75;;;8.84;46.36
4469;BME280;2247;42.666;23.292;2023-02-13T17:02:17;95909.31;;;8.66;46.67
4469;BME280;2247;42.666;23.292;2023-02-13T17:04:49;95897.50;;;8.57;46.82